createdAt,value
2023-02-28T00:02:11.019Z,65.19
2023-02-28T00:07:13.114Z,68.83
2023-02-28T00:12:16.179Z,64.69
2023-02-28T00:17:23.025Z,64.40
2023-02-28T00:22:31.841Z,69.18
2023-02-28T00:27:35.574Z,70.00
2023-02-28T00:32:40.341Z,70.27
2023-02-28T00:37:43.647Z,69.19
2023-02-28T00:42:47.156Z,67.40
2023-02-28T00:47:51.002Z,67.48
2023-02-28T00:52:56.022Z,72.87
2023-02-28T00:57:58.211Z,75.56
2023-02-28T01:03:01.649Z,77.50
2023-02-28T01:08:04.636Z,78.46
2023-02-28T01:13:07.229Z,79.22
2023-02-28T01:18:12.309Z,79.64
2023-02-28T01:23:14.493Z,79.38
2023-02-28T01:28:17.302Z,78.48
2023-02-28T01:33:20.268Z,78.32
2023-02-28T01:38:23.650Z,78.20
2023-02-28T01:43:32.177Z,77.39
2023-02-28T01:48:41.023Z,71.32
2023-02-28T01:53:50.245Z,72.76
2023-02-28T01:58:53.941Z,71.92
2023-02-28T02:04:02.100Z,74.65
2023-02-28T02:09:04.661Z,72.06
2023-02-28T02:14:36.867Z,72.60
2023-02-28T02:20:14.060Z,73.93
2023-02-28T02:25:35.056Z,67.54
2023-02-28T02:31:04.573Z,67.26
2023-02-28T02:36:38.680Z,69.66
2023-02-28T02:41:51.457Z,71.47
2023-02-28T02:47:02.276Z,69.69
2023-02-28T02:52:12.031Z,74.18
2023-02-28T02:57:37.050Z,74.07
2023-02-28T03:02:42.461Z,76.12
2023-02-28T03:07:47.108Z,73.83
2023-02-28T03:13:01.647Z,72.10
2023-02-28T03:18:12.811Z,77.74
2023-02-28T03:23:20.559Z,79.49
2023-02-28T03:28:46.470Z,80.57
2023-02-28T03:33:56.464Z,81.29
2023-02-28T03:39:13.025Z,81.81
2023-02-28T03:44:25.978Z,82.25
2023-02-28T03:49:33.934Z,82.60
2023-02-28T03:54:45.503Z,82.92
2023-02-28T03:59:55.542Z,83.17
2023-02-28T04:04:57.825Z,83.46
2023-02-28T04:10:00.293Z,84.70
2023-02-28T04:15:02.311Z,84.42
2023-02-28T04:20:10.207Z,84.22
2023-02-28T04:25:12.789Z,84.06
2023-02-28T04:30:15.650Z,83.71
2023-02-28T04:35:18.679Z,83.54
2023-02-28T04:40:21.180Z,83.70
2023-02-28T04:45:23.863Z,84.10
2023-02-28T04:50:26.649Z,83.60
2023-02-28T04:55:29.134Z,83.62
2023-02-28T05:00:31.579Z,84.21
2023-02-28T05:05:33.849Z,84.39
2023-02-28T05:10:37.279Z,84.58
2023-02-28T05:15:39.157Z,84.42
2023-02-28T05:20:41.081Z,83.67
2023-02-28T05:25:43.400Z,79.21
2023-02-28T05:30:45.294Z,77.64
2023-02-28T05:35:48.055Z,80.52
2023-02-28T05:40:50.450Z,81.90
2023-02-28T05:45:52.617Z,77.06
2023-02-28T05:50:54.697Z,77.41
2023-02-28T05:55:57.907Z,77.30
2023-02-28T06:01:01.381Z,76.61
2023-02-28T06:06:03.476Z,76.91
2023-02-28T06:11:05.732Z,78.32
2023-02-28T06:16:09.036Z,79.99
2023-02-28T06:21:11.142Z,75.27
2023-02-28T06:26:13.132Z,76.17
2023-02-28T06:31:17.835Z,75.16
2023-02-28T06:36:19.931Z,73.78
2023-02-28T06:41:25.130Z,74.98
2023-02-28T06:46:27.221Z,73.76
2023-02-28T06:51:29.963Z,72.85
2023-02-28T06:56:32.335Z,72.94
2023-02-28T07:01:35.052Z,73.22
2023-02-28T07:06:39.417Z,73.95
2023-02-28T07:11:43.495Z,75.25
2023-02-28T07:16:46.658Z,74.02
2023-02-28T07:21:48.877Z,75.52
2023-02-28T07:26:50.846Z,73.35
2023-02-28T07:31:54.295Z,75.00
2023-02-28T07:36:56.736Z,73.65
2023-02-28T07:41:58.704Z,74.50
2023-02-28T07:47:01.304Z,74.36
2023-02-28T07:52:05.072Z,73.49
2023-02-28T07:57:07.082Z,73.88
2023-02-28T08:02:14.747Z,71.43
2023-02-28T08:07:18.147Z,72.90
2023-02-28T08:12:20.229Z,69.22
2023-02-28T08:17:22.191Z,68.26
2023-02-28T08:22:24.123Z,69.48
2023-02-28T08:27:26.111Z,67.19
2023-02-28T08:32:30.146Z,68.34
2023-02-28T08:37:32.592Z,67.52
2023-02-28T08:42:34.563Z,65.85
2023-02-28T08:47:36.501Z,67.71
2023-02-28T08:52:39.493Z,67.26
2023-02-28T08:57:50.987Z,65.14
2023-02-28T09:03:02.996Z,65.38
2023-02-28T09:08:05.169Z,65.26
2023-02-28T09:13:07.650Z,63.53
2023-02-28T09:18:09.878Z,64.17
2023-02-28T09:23:13.812Z,63.20
2023-02-28T09:28:18.835Z,64.92
2023-02-28T09:33:22.164Z,63.61
2023-02-28T09:38:24.241Z,66.19
2023-02-28T09:43:33.367Z,62.98
2023-02-28T09:48:41.273Z,58.90
2023-02-28T09:53:45.739Z,59.52
2023-02-28T09:58:59.822Z,60.28
2023-02-28T10:04:09.204Z,60.17
2023-02-28T10:09:25.665Z,64.79
2023-02-28T10:14:30.861Z,64.47
2023-02-28T10:19:43.901Z,60.44
2023-02-28T10:24:49.048Z,60.96
2023-02-28T10:29:53.637Z,61.52
2023-02-28T10:35:08.573Z,63.58
2023-02-28T10:40:36.643Z,59.64
2023-02-28T10:45:39.816Z,57.88
2023-02-28T10:50:48.026Z,61.51
2023-02-28T10:56:07.790Z,61.65
2023-02-28T11:01:16.309Z,56.22
2023-02-28T11:06:32.062Z,61.19
2023-02-28T11:11:44.283Z,60.36
2023-02-28T11:16:46.292Z,60.22
2023-02-28T11:21:57.772Z,57.59
2023-02-28T11:27:00.040Z,58.67
2023-02-28T11:32:14.541Z,58.50
2023-02-28T11:37:19.976Z,56.79
2023-02-28T11:42:46.759Z,55.54
2023-02-28T11:48:07.876Z,59.13
2023-02-28T11:53:35.327Z,61.62
2023-02-28T11:58:56.296Z,60.52
2023-02-28T12:04:11.048Z,55.02
2023-02-28T12:09:16.156Z,59.50
2023-02-28T12:14:56.476Z,58.53
2023-02-28T12:20:15.030Z,58.09
2023-02-28T12:25:29.772Z,59.93
2023-02-28T12:30:54.265Z,59.77
2023-02-28T12:36:00.786Z,58.44
2023-02-28T12:41:21.540Z,55.64
2023-02-28T12:46:51.918Z,55.92
2023-02-28T12:51:54.319Z,57.15
2023-02-28T12:57:19.737Z,58.88
2023-02-28T13:03:01.623Z,60.65
2023-02-28T13:08:41.936Z,59.86
2023-02-28T13:13:46.400Z,56.77
2023-02-28T13:18:49.648Z,55.24
2023-02-28T13:23:59.081Z,55.17
2023-02-28T13:29:11.029Z,58.72
2023-02-28T13:34:17.263Z,55.58
2023-02-28T13:39:40.584Z,54.70
2023-02-28T13:45:27.124Z,55.07
2023-02-28T13:50:39.648Z,57.24
2023-02-28T13:55:54.192Z,57.42
2023-02-28T14:01:07.098Z,54.63
2023-02-28T14:06:11.155Z,59.41
2023-02-28T14:11:45.321Z,57.46
2023-02-28T14:16:51.286Z,55.25
2023-02-28T14:22:23.090Z,53.30
2023-02-28T14:27:37.414Z,54.44
2023-02-28T14:33:10.354Z,55.10
2023-02-28T14:38:25.408Z,56.57
2023-02-28T14:43:29.713Z,57.02
2023-02-28T14:48:32.600Z,56.40
2023-02-28T14:53:38.680Z,56.97
2023-02-28T14:58:41.109Z,55.29
2023-02-28T15:03:45.839Z,56.09
2023-02-28T15:08:48.048Z,56.01
2023-02-28T15:13:53.172Z,57.85
2023-02-28T15:19:00.436Z,58.43
2023-02-28T15:24:34.855Z,56.93
2023-02-28T15:30:10.746Z,60.40
2023-02-28T15:35:41.904Z,60.38
2023-02-28T15:40:57.139Z,59.63
2023-02-28T15:46:07.506Z,60.66
2023-02-28T15:51:23.827Z,59.86
2023-02-28T15:56:30.550Z,59.34
2023-02-28T16:01:40.505Z,59.25
2023-02-28T16:06:45.499Z,59.46
2023-02-28T16:11:55.641Z,63.83
2023-02-28T16:17:06.661Z,64.80
2023-02-28T16:22:10.665Z,66.08
2023-02-28T16:27:23.749Z,71.37
2023-02-28T16:32:25.765Z,74.83
2023-02-28T16:37:28.325Z,75.71
2023-02-28T16:42:32.613Z,76.17
2023-02-28T16:47:35.189Z,75.80
2023-02-28T16:52:37.516Z,76.98
2023-02-28T16:57:41.243Z,77.42
2023-02-28T17:02:44.127Z,77.54
2023-02-28T17:07:47.996Z,75.04
2023-02-28T17:12:50.824Z,68.46
2023-02-28T17:17:52.784Z,69.84
2023-02-28T17:22:55.812Z,76.08
2023-02-28T17:27:58.239Z,77.24
2023-02-28T17:33:00.214Z,78.06
2023-02-28T17:38:02.660Z,78.50
2023-02-28T17:43:05.215Z,79.01
2023-02-28T17:48:07.815Z,79.12
2023-02-28T17:53:09.732Z,79.33
2023-02-28T17:58:13.709Z,79.48
2023-02-28T18:03:16.299Z,79.49
2023-02-28T18:08:18.310Z,79.50
2023-02-28T18:13:20.494Z,79.76
2023-02-28T18:18:22.747Z,79.94
2023-02-28T18:23:25.472Z,80.22
2023-02-28T18:28:28.031Z,80.36
2023-02-28T18:33:30.191Z,80.53
2023-02-28T18:38:34.461Z,80.86
2023-02-28T18:43:38.613Z,81.15
2023-02-28T18:48:41.768Z,81.41
2023-02-28T18:53:44.299Z,81.56
2023-02-28T18:58:46.741Z,81.63
2023-02-28T19:03:50.436Z,81.53
2023-02-28T19:08:59.704Z,80.59
2023-02-28T19:14:02.743Z,80.69
2023-02-28T19:19:05.686Z,81.49
2023-02-28T19:24:07.942Z,82.12
2023-02-28T19:29:10.273Z,82.46
2023-02-28T19:34:12.782Z,82.61
2023-02-28T19:39:15.090Z,82.77
2023-02-28T19:44:17.600Z,82.78
2023-02-28T19:49:19.552Z,82.98
2023-02-28T19:54:22.294Z,83.19
2023-02-28T19:59:35.793Z,83.33
2023-02-28T20:04:41.665Z,83.32
2023-02-28T20:09:45.701Z,83.31
2023-02-28T20:14:49.255Z,83.38
2023-02-28T20:19:51.925Z,83.38
2023-02-28T20:24:54.613Z,83.52
2023-02-28T20:30:09.686Z,83.57
2023-02-28T20:35:11.994Z,83.69
2023-02-28T20:40:14.500Z,83.80
2023-02-28T20:45:17.527Z,83.87
2023-02-28T20:50:20.246Z,83.88
2023-02-28T20:55:22.291Z,83.93
2023-02-28T21:00:26.492Z,83.86
2023-02-28T21:05:29.253Z,83.89
2023-02-28T21:10:32.523Z,83.86
2023-02-28T21:15:38.656Z,83.97
2023-02-28T21:20:40.701Z,84.10
2023-02-28T21:25:43.632Z,84.20
2023-02-28T21:30:45.994Z,84.31
2023-02-28T21:35:48.813Z,84.40
2023-02-28T21:40:51.488Z,84.51
2023-02-28T21:45:53.998Z,84.52
2023-02-28T21:51:04.339Z,84.64
2023-02-28T21:56:11.395Z,84.90
2023-02-28T22:01:15.409Z,85.09
2023-02-28T22:06:24.410Z,85.28
2023-02-28T22:11:27.996Z,85.29
2023-02-28T22:16:44.168Z,84.33
2023-02-28T22:21:53.881Z,84.30
2023-02-28T22:26:56.234Z,84.71
2023-02-28T22:31:58.441Z,85.27
2023-02-28T22:37:01.168Z,85.65
2023-02-28T22:42:03.719Z,85.97
2023-02-28T22:47:07.412Z,85.88
2023-02-28T22:52:11.375Z,85.80
2023-02-28T22:57:14.649Z,85.83
2023-02-28T23:02:16.667Z,85.87
2023-02-28T23:07:19.012Z,85.95
2023-02-28T23:12:21.642Z,86.03
2023-02-28T23:17:23.912Z,86.03
2023-02-28T23:22:25.875Z,85.57
2023-02-28T23:27:28.574Z,85.24
2023-02-28T23:32:30.949Z,85.00
2023-02-28T23:37:34.404Z,84.64
2023-02-28T23:42:37.568Z,84.26
2023-02-28T23:47:39.549Z,82.42
2023-02-28T23:52:41.967Z,82.53
2023-02-28T23:57:44.554Z,82.70
